createdAt,value
2017-08-20T00:00:03.311Z,2.00
2017-08-20T00:02:34.696Z,2.13
2017-08-20T00:05:04.496Z,2.10
2017-08-20T00:07:34.236Z,2.33
2017-08-20T00:10:03.201Z,2.10
2017-08-20T00:12:32.144Z,2.00
2017-08-20T00:15:01.113Z,1.90
2017-08-20T00:17:30.072Z,2.20
2017-08-20T00:19:59.803Z,2.23
2017-08-20T00:22:28.753Z,2.20
2017-08-20T00:24:57.724Z,2.47
2017-08-20T00:27:26.675Z,2.13
2017-08-20T00:29:55.645Z,2.23
2017-08-20T00:32:25.362Z,3.20
2017-08-20T00:34:55.169Z,2.40
2017-08-20T00:37:24.879Z,1.93
2017-08-20T00:39:54.636Z,2.20
2017-08-20T00:42:23.585Z,1.90
2017-08-20T00:44:53.319Z,2.43
2017-08-20T00:47:22.716Z,2.10
2017-08-20T00:49:51.689Z,2.20
2017-08-20T00:52:20.655Z,2.07
2017-08-20T00:54:49.651Z,1.87
2017-08-20T00:57:18.607Z,1.80
2017-08-20T00:59:47.585Z,2.10
2017-08-20T01:02:16.532Z,2.63
2017-08-20T01:04:45.512Z,2.00
2017-08-20T01:07:14.471Z,1.90
2017-08-20T01:09:43.446Z,2.20
2017-08-20T01:12:12.398Z,1.80
2017-08-20T01:14:42.143Z,2.03
2017-08-20T01:17:11.097Z,2.00
2017-08-20T01:19:41.191Z,2.20
2017-08-20T01:22:10.132Z,1.60
2017-08-20T01:24:39.100Z,2.20
2017-08-20T01:27:08.913Z,2.00
2017-08-20T01:29:37.841Z,2.10
2017-08-20T01:32:06.788Z,2.03
2017-08-20T01:34:35.744Z,1.77
2017-08-20T01:37:04.771Z,1.90
2017-08-20T01:39:35.321Z,2.10
2017-08-20T01:42:04.300Z,2.10
2017-08-20T01:44:34.040Z,2.50
2017-08-20T01:47:02.988Z,2.27
2017-08-20T01:49:31.991Z,2.33
2017-08-20T01:52:01.030Z,2.03
2017-08-20T01:54:29.974Z,2.10
2017-08-20T01:56:58.922Z,1.77
2017-08-20T01:59:27.892Z,2.10
2017-08-20T02:01:56.877Z,2.03
2017-08-20T02:04:25.839Z,1.90
2017-08-20T02:06:54.779Z,2.10
2017-08-20T02:09:23.711Z,1.93
2017-08-20T02:11:52.676Z,2.43
2017-08-20T02:14:21.679Z,2.40
2017-08-20T02:16:50.626Z,2.30
2017-08-20T02:19:19.563Z,2.13
2017-08-20T02:21:48.530Z,2.30
2017-08-20T02:24:17.499Z,2.40
2017-08-20T02:26:46.443Z,2.40
2017-08-20T02:29:15.408Z,2.13
2017-08-20T02:31:44.377Z,2.23
2017-08-20T02:34:13.355Z,2.60
2017-08-20T02:36:42.344Z,2.10
2017-08-20T02:39:11.352Z,2.07
2017-08-20T02:41:40.303Z,2.10
2017-08-20T02:44:09.293Z,2.60
2017-08-20T02:46:38.240Z,2.00
2017-08-20T02:49:07.280Z,2.23
2017-08-20T02:51:36.273Z,2.50
2017-08-20T02:54:05.194Z,2.20
2017-08-20T02:56:34.164Z,2.80
2017-08-20T02:59:03.944Z,2.40
2017-08-20T03:01:32.984Z,2.07
2017-08-20T03:04:01.929Z,2.43
2017-08-20T03:06:30.917Z,2.10
2017-08-20T03:08:59.913Z,2.20
2017-08-20T03:11:28.907Z,2.53
2017-08-20T03:13:57.862Z,3.10
2017-08-20T03:16:26.845Z,2.07
2017-08-20T03:18:56.388Z,2.73
2017-08-20T03:21:25.376Z,2.30
2017-08-20T03:23:54.335Z,2.70
2017-08-20T03:26:23.299Z,2.87
2017-08-20T03:28:52.271Z,2.47
2017-08-20T03:31:21.214Z,2.40
2017-08-20T03:33:50.175Z,2.50
2017-08-20T03:36:19.156Z,3.20
2017-08-20T03:38:48.885Z,2.20
2017-08-20T03:41:17.829Z,2.53
2017-08-20T03:43:46.802Z,2.80
2017-08-20T03:46:15.753Z,2.80
2017-08-20T03:48:44.868Z,2.77
2017-08-20T03:51:13.829Z,2.87
2017-08-20T03:53:42.812Z,2.50
2017-08-20T03:56:11.758Z,2.30
2017-08-20T03:58:40.697Z,2.50
2017-08-20T04:01:09.676Z,3.20
2017-08-20T04:03:38.644Z,3.13
2017-08-20T04:06:07.601Z,2.90
2017-08-20T04:08:36.564Z,3.03
2017-08-20T04:11:05.481Z,2.90
2017-08-20T04:13:37.240Z,3.37
2017-08-20T04:16:06.452Z,2.80
2017-08-20T04:18:35.415Z,2.57
2017-08-20T04:21:04.367Z,2.37
2017-08-20T04:23:33.337Z,2.50
2017-08-20T04:26:02.971Z,3.00
2017-08-20T04:28:31.947Z,2.97
2017-08-20T04:31:00.909Z,2.77
2017-08-20T04:33:29.854Z,3.03
2017-08-20T04:35:58.831Z,2.50
2017-08-20T04:38:27.785Z,2.50
2017-08-20T04:40:56.761Z,2.43
2017-08-20T04:43:25.704Z,2.37
2017-08-20T04:45:54.679Z,2.80
2017-08-20T04:48:23.649Z,2.50
2017-08-20T04:50:52.603Z,2.20
2017-08-20T04:53:21.538Z,2.53
2017-08-20T04:55:50.513Z,2.07
2017-08-20T04:58:19.451Z,2.37
2017-08-20T05:00:48.404Z,2.07
2017-08-20T05:03:17.367Z,2.30
2017-08-20T05:05:46.324Z,1.90
2017-08-20T05:08:15.268Z,2.00
2017-08-20T05:10:44.230Z,2.00
2017-08-20T05:13:14.016Z,1.93
2017-08-20T05:15:42.980Z,2.50
2017-08-20T05:18:11.935Z,1.90
2017-08-20T05:20:40.991Z,2.10
2017-08-20T05:23:09.948Z,1.97
2017-08-20T05:25:38.899Z,2.00
2017-08-20T05:28:07.854Z,1.90
2017-08-20T05:30:36.813Z,1.97
2017-08-20T05:33:05.768Z,2.80
2017-08-20T05:35:34.748Z,2.07
2017-08-20T05:38:03.701Z,2.30
2017-08-20T05:40:32.693Z,2.27
2017-08-20T05:43:01.641Z,2.60
2017-08-20T05:45:30.736Z,2.63
2017-08-20T05:47:59.688Z,2.47
2017-08-20T05:50:28.646Z,2.90
2017-08-20T05:52:57.682Z,2.70
2017-08-20T05:55:26.620Z,2.47
2017-08-20T05:57:55.604Z,2.87
2017-08-20T06:00:24.580Z,3.60
2017-08-20T06:02:54.447Z,2.97
2017-08-20T06:05:23.386Z,2.40
2017-08-20T06:07:52.357Z,2.03
2017-08-20T06:10:21.297Z,1.60
2017-08-20T06:12:50.265Z,1.97
2017-08-20T06:15:19.979Z,2.00
2017-08-20T06:17:49.019Z,1.97
2017-08-20T06:20:17.979Z,1.93
2017-08-20T06:22:46.919Z,1.80
2017-08-20T06:25:15.924Z,2.37
2017-08-20T06:27:44.907Z,2.47
2017-08-20T06:30:13.875Z,2.93
2017-08-20T06:32:42.849Z,1.87
2017-08-20T06:35:11.825Z,2.10
2017-08-20T06:37:40.808Z,1.63
2017-08-20T06:40:09.766Z,2.47
2017-08-20T06:42:38.757Z,2.20
2017-08-20T06:45:07.725Z,1.77
2017-08-20T06:47:36.723Z,2.30
2017-08-20T06:50:05.694Z,2.57
2017-08-20T06:52:34.997Z,1.90
2017-08-20T06:55:03.990Z,2.10
2017-08-20T06:57:32.981Z,1.63
2017-08-20T07:00:01.960Z,1.77
2017-08-20T07:02:30.955Z,1.57
2017-08-20T07:04:59.939Z,2.17
2017-08-20T07:07:29.765Z,1.50
2017-08-20T07:09:58.776Z,1.80
2017-08-20T07:12:27.849Z,1.80
2017-08-20T07:14:57.477Z,2.00
2017-08-20T07:17:26.431Z,1.40
2017-08-20T07:19:55.394Z,1.70
2017-08-20T07:22:24.372Z,1.97
2017-08-20T07:24:53.385Z,1.63
2017-08-20T07:27:23.926Z,1.50
2017-08-20T07:29:53.862Z,1.80
2017-08-20T07:32:23.643Z,1.70
2017-08-20T07:34:53.159Z,1.80
2017-08-20T07:37:22.419Z,2.10
2017-08-20T07:39:51.402Z,2.47
2017-08-20T07:42:20.528Z,1.60
2017-08-20T07:44:51.026Z,1.63
2017-08-20T07:47:19.992Z,1.80
2017-08-20T07:49:48.941Z,1.63
2017-08-20T07:52:19.420Z,1.50
2017-08-20T07:54:49.368Z,1.43
2017-08-20T07:57:18.328Z,1.83
2017-08-20T07:59:47.649Z,1.57
2017-08-20T08:02:16.632Z,1.73
2017-08-20T08:04:45.573Z,2.10
2017-08-20T08:07:16.402Z,1.90
2017-08-20T08:09:45.667Z,2.00
2017-08-20T08:12:15.273Z,2.20
2017-08-20T08:14:44.228Z,1.43
2017-08-20T08:17:14.252Z,1.40
2017-08-20T08:19:43.212Z,1.90
2017-08-20T08:22:12.195Z,1.80
2017-08-20T08:24:41.940Z,1.60
2017-08-20T08:27:10.919Z,1.53
2017-08-20T08:29:40.850Z,1.80
2017-08-20T08:32:09.924Z,1.30
2017-08-20T08:34:38.884Z,1.70
2017-08-20T08:37:08.698Z,1.87
2017-08-20T08:39:37.705Z,1.30
2017-08-20T08:42:07.599Z,1.40
2017-08-20T08:44:37.498Z,1.80
2017-08-20T08:47:06.471Z,1.57
2017-08-20T08:49:35.513Z,1.50
2017-08-20T08:52:05.563Z,1.15
2017-08-20T08:54:34.536Z,1.70
2017-08-20T08:57:03.524Z,1.40
2017-08-20T08:59:32.552Z,1.33
2017-08-20T09:02:02.302Z,1.57
2017-08-20T09:04:31.311Z,1.60
2017-08-20T09:07:00.525Z,1.60
2017-08-20T09:09:29.620Z,1.57
2017-08-20T09:11:59.519Z,1.57
2017-08-20T09:14:29.868Z,2.13
2017-08-20T09:16:59.768Z,1.60
2017-08-20T09:19:28.736Z,1.80
2017-08-20T09:21:57.697Z,1.33
2017-08-20T09:24:26.694Z,1.50
2017-08-20T09:26:55.686Z,1.73
2017-08-20T09:29:24.805Z,1.70
2017-08-20T09:31:53.736Z,1.70
2017-08-20T09:34:22.968Z,1.97
2017-08-20T09:36:52.692Z,1.80
2017-08-20T09:39:23.352Z,2.07
2017-08-20T09:41:52.339Z,1.80
2017-08-20T09:44:21.413Z,1.70
2017-08-20T09:46:50.663Z,1.93
2017-08-20T09:49:19.701Z,1.53
2017-08-20T09:51:49.581Z,1.77
2017-08-20T09:54:18.894Z,1.87
2017-08-20T09:56:47.968Z,1.63
2017-08-20T09:59:16.979Z,1.70
2017-08-20T10:01:45.993Z,2.13
2017-08-20T10:04:15.107Z,1.70
2017-08-20T10:06:45.356Z,1.70
2017-08-20T10:09:14.781Z,2.03
2017-08-20T10:11:43.760Z,1.70
2017-08-20T10:14:12.876Z,1.90
2017-08-20T10:16:42.506Z,2.10
2017-08-20T10:19:12.260Z,1.90
2017-08-20T10:21:41.774Z,1.90
2017-08-20T10:24:10.921Z,2.60
2017-08-20T10:26:40.861Z,2.13
2017-08-20T10:29:09.851Z,1.43
2017-08-20T10:31:39.765Z,2.00
2017-08-20T10:34:08.805Z,1.47
2017-08-20T10:36:37.794Z,1.90
2017-08-20T10:39:07.713Z,1.80
2017-08-20T10:41:36.711Z,1.70
2017-08-20T10:44:05.671Z,1.50
2017-08-20T10:46:35.432Z,1.40
2017-08-20T10:49:04.401Z,2.00
2017-08-20T10:51:33.419Z,1.23
2017-08-20T10:54:02.369Z,1.23
2017-08-20T10:56:31.303Z,1.67
2017-08-20T10:59:01.030Z,1.53
2017-08-20T11:01:29.972Z,1.40
2017-08-20T11:03:58.969Z,1.33
2017-08-20T11:06:27.926Z,1.53
2017-08-20T11:08:56.894Z,1.70
2017-08-20T11:11:25.882Z,1.95
2017-08-20T11:13:55.693Z,1.70
2017-08-20T11:16:24.643Z,1.98
2017-08-20T11:18:53.640Z,2.37
2017-08-20T11:21:22.629Z,1.20
2017-08-20T11:23:51.650Z,1.60
2017-08-20T11:26:20.614Z,1.40
2017-08-20T11:28:49.603Z,1.70
2017-08-20T11:31:18.564Z,1.50
2017-08-20T11:33:47.533Z,1.70
2017-08-20T11:36:16.490Z,1.40
2017-08-20T11:38:46.286Z,1.50
2017-08-20T11:41:15.303Z,1.63
2017-08-20T11:43:45.048Z,2.20
2017-08-20T11:46:15.867Z,1.53
2017-08-20T11:48:44.952Z,1.67
2017-08-20T11:51:15.038Z,1.83
2017-08-20T11:53:44.770Z,2.53
2017-08-20T11:56:13.786Z,2.10
2017-08-20T11:58:42.754Z,2.13
2017-08-20T12:01:12.621Z,2.63
2017-08-20T12:03:41.593Z,2.17
2017-08-20T12:06:10.567Z,2.97
2017-08-20T12:08:40.305Z,2.77
2017-08-20T12:11:09.257Z,3.17
2017-08-20T12:13:39.002Z,2.17
2017-08-20T12:16:07.962Z,1.83
2017-08-20T12:18:37.700Z,1.63
2017-08-20T12:21:06.663Z,1.70
2017-08-20T12:23:36.428Z,2.00
2017-08-20T12:26:05.401Z,1.97
2017-08-20T12:28:34.358Z,2.03
2017-08-20T12:31:04.109Z,2.50
2017-08-20T12:33:33.057Z,4.50
2017-08-20T12:36:02.827Z,3.23
2017-08-20T12:38:31.787Z,3.10
2017-08-20T12:41:00.771Z,2.50
2017-08-20T12:43:29.734Z,2.40
2017-08-20T12:45:59.463Z,2.23
2017-08-20T12:48:28.415Z,2.93
2017-08-20T12:50:57.450Z,2.10
2017-08-20T12:53:26.420Z,2.10
2017-08-20T12:55:55.395Z,3.53
2017-08-20T12:58:24.403Z,2.53
2017-08-20T13:00:53.363Z,3.50
2017-08-20T13:03:22.332Z,7.13
2017-08-20T13:05:51.347Z,2.00
2017-08-20T13:08:20.376Z,2.90
2017-08-20T13:10:50.110Z,2.60
2017-08-20T13:13:19.086Z,2.30
2017-08-20T13:15:48.033Z,2.50
2017-08-20T13:18:17.012Z,1.93
2017-08-20T13:20:45.991Z,2.00
2017-08-20T13:23:14.963Z,2.27
2017-08-20T13:25:43.929Z,2.10
2017-08-20T13:28:12.973Z,1.73
2017-08-20T13:30:42.008Z,1.63
2017-08-20T13:33:10.970Z,1.97
2017-08-20T13:35:39.921Z,1.90
2017-08-20T13:38:08.896Z,1.87
2017-08-20T13:40:38.873Z,2.60
2017-08-20T13:43:07.885Z,2.70
2017-08-20T13:45:36.841Z,2.20
2017-08-20T13:48:05.819Z,3.07
2017-08-20T13:50:34.759Z,2.40
2017-08-20T13:53:03.745Z,3.00
2017-08-20T13:55:32.721Z,3.00
2017-08-20T13:58:01.754Z,3.00
2017-08-20T14:00:32.203Z,2.50
2017-08-20T14:03:01.202Z,1.93
2017-08-20T14:05:30.173Z,1.70
2017-08-20T14:07:59.151Z,1.40
2017-08-20T14:10:28.877Z,1.30
2017-08-20T14:12:57.888Z,0.87
2017-08-20T14:15:26.871Z,0.93
2017-08-20T14:17:55.801Z,0.80
2017-08-20T14:20:24.791Z,1.07
2017-08-20T14:22:53.792Z,0.90
2017-08-20T14:25:22.748Z,0.70
2017-08-20T14:27:51.728Z,1.20
2017-08-20T14:30:20.709Z,0.80
2017-08-20T14:32:49.687Z,0.90
2017-08-20T14:35:18.640Z,1.03
2017-08-20T14:37:47.638Z,0.80
2017-08-20T14:40:16.631Z,0.90
2017-08-20T14:42:45.579Z,0.97
2017-08-20T14:45:14.590Z,1.23
2017-08-20T14:47:43.570Z,1.20
2017-08-20T14:50:12.632Z,0.90
2017-08-20T14:52:41.586Z,1.00
2017-08-20T14:55:10.559Z,0.97
2017-08-20T14:57:39.497Z,1.77
2017-08-20T15:00:08.603Z,1.20
2017-08-20T15:02:37.596Z,1.10
2017-08-20T15:05:06.578Z,1.10
2017-08-20T15:07:35.514Z,0.90
2017-08-20T15:10:04.487Z,0.87
2017-08-20T15:12:33.468Z,0.80
2017-08-20T15:15:02.465Z,1.00
2017-08-20T15:17:31.419Z,0.70
2017-08-20T15:20:00.377Z,0.80
2017-08-20T15:22:29.359Z,0.80
2017-08-20T15:24:58.319Z,0.87
2017-08-20T15:27:28.076Z,0.70
2017-08-20T15:29:57.086Z,1.03
2017-08-20T15:32:26.030Z,0.90
2017-08-20T15:34:55.001Z,0.90
2017-08-20T15:37:23.970Z,0.77
2017-08-20T15:39:52.966Z,1.10
2017-08-20T15:42:21.925Z,1.03
2017-08-20T15:44:50.929Z,0.73
2017-08-20T15:47:19.873Z,0.70
2017-08-20T15:49:48.837Z,1.00
2017-08-20T15:52:17.814Z,1.03
2017-08-20T15:54:48.214Z,1.10
2017-08-20T15:57:17.185Z,1.30
2017-08-20T15:59:46.464Z,1.17
2017-08-20T16:02:16.176Z,0.80
2017-08-20T16:04:45.929Z,1.00
2017-08-20T16:07:14.880Z,0.90
2017-08-20T16:09:43.844Z,1.20
2017-08-20T16:12:12.811Z,1.00
2017-08-20T16:14:41.797Z,0.83
2017-08-20T16:17:10.742Z,0.70
2017-08-20T16:19:40.549Z,1.00
2017-08-20T16:22:09.514Z,1.43
2017-08-20T16:24:38.448Z,1.27
2017-08-20T16:27:07.442Z,1.17
2017-08-20T16:29:36.441Z,1.00
2017-08-20T16:32:05.421Z,1.00
2017-08-20T16:34:34.397Z,1.30
2017-08-20T16:37:04.126Z,1.40
2017-08-20T16:39:33.206Z,1.93
2017-08-20T16:42:02.916Z,1.70
2017-08-20T16:44:31.880Z,1.70
2017-08-20T16:47:00.843Z,2.27
2017-08-20T16:49:29.796Z,1.77
2017-08-20T16:51:59.542Z,1.37
2017-08-20T16:54:28.488Z,1.90
2017-08-20T16:56:58.240Z,1.40
2017-08-20T16:59:27.179Z,1.57
2017-08-20T17:01:56.183Z,1.90
2017-08-20T17:04:25.906Z,1.87
2017-08-20T17:06:54.898Z,1.80
2017-08-20T17:09:23.867Z,2.43
2017-08-20T17:11:52.892Z,1.97
2017-08-20T17:14:21.872Z,1.57
2017-08-20T17:16:51.786Z,1.70
2017-08-20T17:19:20.747Z,1.50
2017-08-20T17:21:49.794Z,1.40
2017-08-20T17:24:18.839Z,1.33
2017-08-20T17:26:47.806Z,1.90
2017-08-20T17:29:16.788Z,1.50
2017-08-20T17:31:45.732Z,1.80
2017-08-20T17:34:15.486Z,1.60
2017-08-20T17:36:44.451Z,1.73
2017-08-20T17:39:13.440Z,1.40
2017-08-20T17:41:42.384Z,1.97
2017-08-20T17:44:11.421Z,1.70
2017-08-20T17:46:40.370Z,1.63
2017-08-20T17:49:09.389Z,1.50
2017-08-20T17:51:38.335Z,1.90
2017-08-20T17:54:07.301Z,1.83
2017-08-20T17:56:36.363Z,1.90
2017-08-20T17:59:06.103Z,1.80
2017-08-20T18:01:35.111Z,1.73
2017-08-20T18:04:04.132Z,2.27
2017-08-20T18:06:33.157Z,2.00
2017-08-20T18:09:03.880Z,2.10
2017-08-20T18:11:33.627Z,2.70
2017-08-20T18:14:02.709Z,2.10
2017-08-20T18:16:31.730Z,2.80
2017-08-20T18:19:00.703Z,2.27
2017-08-20T18:21:29.667Z,2.47
2017-08-20T18:23:59.433Z,2.30
2017-08-20T18:26:28.441Z,3.03
2017-08-20T18:28:57.460Z,2.17
2017-08-20T18:31:27.283Z,2.40
2017-08-20T18:33:57.016Z,2.73
2017-08-20T18:36:26.708Z,2.67
2017-08-20T18:38:55.822Z,2.40
2017-08-20T18:41:24.876Z,3.17
2017-08-20T18:43:53.857Z,3.23
2017-08-20T18:46:23.695Z,3.43
2017-08-20T18:48:52.680Z,3.70
2017-08-20T18:51:22.528Z,4.07
2017-08-20T18:53:51.523Z,4.40
2017-08-20T18:56:20.501Z,3.47
2017-08-20T18:58:49.576Z,3.10
2017-08-20T19:01:19.211Z,2.50
2017-08-20T19:03:48.208Z,2.40
2017-08-20T19:06:17.177Z,2.50
2017-08-20T19:08:46.243Z,2.37
2017-08-20T19:11:15.234Z,2.90
2017-08-20T19:13:44.238Z,2.53
2017-08-20T19:16:13.978Z,3.70
2017-08-20T19:18:42.995Z,3.47
2017-08-20T19:21:11.947Z,3.83
2017-08-20T19:23:40.971Z,3.17
2017-08-20T19:26:09.965Z,3.10
2017-08-20T19:28:39.006Z,4.03
2017-08-20T19:31:08.029Z,4.60
2017-08-20T19:33:37.050Z,5.77
2017-08-20T19:36:06.034Z,5.03
2017-08-20T19:38:35.049Z,4.67
2017-08-20T19:41:04.096Z,4.75
2017-08-20T19:43:33.254Z,4.07
2017-08-20T19:46:02.224Z,3.67
2017-08-20T19:48:31.345Z,3.97
2017-08-20T19:51:00.346Z,3.23
2017-08-20T19:53:29.441Z,3.97
2017-08-20T19:55:58.438Z,3.53
2017-08-20T19:58:28.188Z,4.47
2017-08-20T20:00:57.209Z,3.87
2017-08-20T20:03:26.201Z,4.20
2017-08-20T20:05:55.207Z,3.50
2017-08-20T20:08:24.957Z,3.27
2017-08-20T20:10:53.981Z,3.70
2017-08-20T20:13:22.948Z,3.47
2017-08-20T20:15:51.952Z,3.73
2017-08-20T20:18:20.992Z,3.30
2017-08-20T20:20:50.005Z,4.27
2017-08-20T20:23:18.993Z,2.70
2017-08-20T20:25:48.007Z,3.53
2017-08-20T20:28:16.958Z,3.83
2017-08-20T20:30:46.732Z,3.40
2017-08-20T20:33:15.767Z,3.20
2017-08-20T20:35:46.030Z,3.13
2017-08-20T20:38:15.153Z,3.20
2017-08-20T20:40:44.157Z,3.50
2017-08-20T20:43:13.138Z,3.83
2017-08-20T20:45:42.106Z,3.63
2017-08-20T20:48:11.088Z,4.27
2017-08-20T20:50:40.041Z,3.90
2017-08-20T20:53:09.795Z,3.23
2017-08-20T20:55:38.766Z,3.83
2017-08-20T20:58:07.714Z,3.67
2017-08-20T21:00:36.676Z,3.90
2017-08-20T21:03:05.690Z,3.87
2017-08-20T21:05:34.678Z,3.80
2017-08-20T21:08:03.654Z,3.90
2017-08-20T21:10:32.602Z,4.83
2017-08-20T21:13:01.602Z,4.23
2017-08-20T21:15:30.554Z,4.33
2017-08-20T21:17:59.518Z,4.00
2017-08-20T21:20:28.566Z,4.30
2017-08-20T21:22:57.522Z,4.00
2017-08-20T21:25:26.524Z,3.47
2017-08-20T21:27:55.452Z,3.97
2017-08-20T21:30:24.450Z,4.20
2017-08-20T21:32:53.395Z,4.17
2017-08-20T21:35:22.365Z,3.67
2017-08-20T21:37:51.306Z,4.17
2017-08-20T21:40:20.272Z,3.63
2017-08-20T21:42:49.230Z,4.13
2017-08-20T21:45:18.189Z,3.50
2017-08-20T21:47:47.151Z,4.50
2017-08-20T21:50:16.118Z,4.40
2017-08-20T21:52:45.169Z,4.10
2017-08-20T21:55:14.150Z,3.63
2017-08-20T21:57:43.851Z,3.87
2017-08-20T22:00:13.588Z,4.53
2017-08-20T22:02:42.550Z,3.70
2017-08-20T22:05:11.517Z,3.77
2017-08-20T22:07:40.477Z,4.23
2017-08-20T22:10:09.537Z,3.50
2017-08-20T22:12:38.480Z,4.40
2017-08-20T22:15:07.432Z,4.10
2017-08-20T22:17:36.393Z,3.40
2017-08-20T22:20:05.463Z,3.80
2017-08-20T22:22:34.488Z,4.00
2017-08-20T22:25:04.221Z,3.30
2017-08-20T22:27:33.214Z,3.93
2017-08-20T22:30:02.191Z,4.30
2017-08-20T22:32:31.147Z,4.00
2017-08-20T22:35:00.143Z,4.20
2017-08-20T22:37:29.148Z,4.90
2017-08-20T22:39:58.126Z,4.10
2017-08-20T22:42:27.082Z,4.40
2017-08-20T22:44:56.059Z,4.20
2017-08-20T22:47:25.017Z,5.13
2017-08-20T22:49:54.743Z,4.30
2017-08-20T22:52:23.688Z,4.90
2017-08-20T22:54:52.681Z,5.20
2017-08-20T22:57:21.623Z,5.27
2017-08-20T22:59:50.599Z,5.20
2017-08-20T23:02:19.549Z,5.00
2017-08-20T23:04:48.525Z,5.30
2017-08-20T23:07:17.471Z,4.40
2017-08-20T23:09:47.777Z,5.00
2017-08-20T23:12:16.753Z,5.53
2017-08-20T23:14:45.722Z,4.97
2017-08-20T23:17:14.673Z,5.30
2017-08-20T23:19:44.421Z,5.00
2017-08-20T23:22:13.382Z,5.50
2017-08-20T23:24:42.361Z,5.70
2017-08-20T23:27:12.169Z,6.10
2017-08-20T23:29:41.112Z,6.40
2017-08-20T23:32:10.070Z,5.80
2017-08-20T23:34:39.040Z,6.30
2017-08-20T23:37:08.239Z,6.13
2017-08-20T23:39:37.999Z,6.90
2017-08-20T23:42:07.014Z,5.77
2017-08-20T23:44:35.963Z,6.00
2017-08-20T23:47:04.946Z,6.23
2017-08-20T23:49:33.886Z,6.33
2017-08-20T23:52:02.874Z,5.83
2017-08-20T23:54:31.824Z,6.33
2017-08-20T23:57:00.801Z,6.20
2017-08-20T23:59:29.768Z,5.67
